Time;durP1;ratioP1;P1;durP2;ratioP2;P2;SDS_P1;SDS_P2;PMS_P1;PMS_P2;Temp;Humidity;BMP_temperature;BMP_pressure;BME280_temperature;BME280_humidity;BME280_pressure;Samples;Min_cycle;Max_cycle;Signal;HPM_P1;HPM_P2
2023/07/14 00:01:35;;;;;;;4.30;3.90;;;15.40;99.90;;;;;;5033836;28;20839;-54
2023/07/14 00:04:02;;;;;;;4.80;4.43;;;15.40;99.90;;;;;;5033525;28;20841;-55
2023/07/14 00:06:29;;;;;;;5.00;4.50;;;15.40;99.90;;;;;;5033491;28;20447;-54
2023/07/14 00:08:55;;;;;;;5.77;4.80;;;15.30;99.90;;;;;;5033386;28;20510;-55
2023/07/14 00:11:24;;;;;;;6.50;4.90;;;15.30;99.90;;;;;;5033096;28;20470;-55
2023/07/14 00:13:53;;;;;;;6.13;4.43;;;15.30;99.90;;;;;;5032759;28;20455;-55
2023/07/14 00:16:22;;;;;;;4.47;4.07;;;15.30;99.90;;;;;;5033174;28;20489;-55
2023/07/14 00:18:50;;;;;;;7.50;6.20;;;15.20;99.90;;;;;;5032880;28;20803;-56
2023/07/14 00:21:21;;;;;;;6.07;5.47;;;15.20;99.90;;;;;;5032893;28;20624;-55
2023/07/14 00:23:48;;;;;;;6.43;4.57;;;15.20;99.90;;;;;;5033496;28;20428;-56
2023/07/14 00:26:18;;;;;;;7.13;4.70;;;15.20;99.90;;;;;;5033800;28;20459;-56
2023/07/14 00:28:48;;;;;;;5.17;4.67;;;15.20;99.90;;;;;;5037184;28;20455;-55
2023/07/14 00:31:17;;;;;;;4.90;4.40;;;15.20;99.90;;;;;;5037238;28;20474;-56
2023/07/14 00:33:45;;;;;;;6.93;5.60;;;15.10;99.90;;;;;;5037216;28;20485;-56
2023/07/14 00:36:13;;;;;;;5.20;4.70;;;15.10;99.90;;;;;;5037331;28;20547;-57
2023/07/14 00:38:40;;;;;;;5.40;4.47;;;15.10;99.90;;;;;;5036829;28;20936;-55
2023/07/14 00:41:15;;;;;;;5.00;4.60;;;15.00;99.90;;;;;;5037251;28;20466;-56
2023/07/14 00:43:42;;;;;;;5.60;4.50;;;15.00;99.90;;;;;;5036696;28;20435;-55
2023/07/14 00:46:22;;;;;;;8.57;4.80;;;14.90;99.90;;;;;;5037074;28;20462;-56
2023/07/14 00:48:50;;;;;;;5.50;4.60;;;14.90;99.90;;;;;;5036951;28;20439;-56
2023/07/14 00:51:18;;;;;;;7.00;5.27;;;14.90;99.90;;;;;;5036704;28;20548;-55
2023/07/14 00:53:45;;;;;;;5.60;5.10;;;14.80;99.90;;;;;;5036809;28;20802;-56
2023/07/14 00:56:33;;;;;;;8.30;5.03;;;14.80;99.90;;;;;;5036315;28;20830;-55
2023/07/14 00:59:01;;;;;;;6.70;4.90;;;14.80;99.90;;;;;;5036696;28;20438;-55
2023/07/14 01:01:32;;;;;;;7.60;4.90;;;14.80;99.90;;;;;;5036519;28;20475;-55
2023/07/14 01:04:00;;;;;;;5.40;4.87;;;14.70;99.90;;;;;;5036526;28;20438;-56
2023/07/14 01:06:30;;;;;;;6.53;5.10;;;14.70;99.90;;;;;;5036524;28;20959;-56
2023/07/14 01:08:59;;;;;;;7.20;4.80;;;14.70;99.90;;;;;;5036586;28;20457;-56
2023/07/14 01:11:31;;;;;;;5.37;4.87;;;14.70;99.90;;;;;;5036418;28;20467;-56
2023/07/14 01:13:59;;;;;;;8.30;5.60;;;14.70;99.90;;;;;;5036500;28;20436;-55
2023/07/14 01:16:29;;;;;;;5.43;4.80;;;14.60;99.90;;;;;;5036046;28;20481;-56
2023/07/14 01:18:57;;;;;;;5.47;4.97;;;14.60;99.90;;;;;;5036312;28;20443;-56
2023/07/14 01:21:25;;;;;;;6.93;5.40;;;14.50;99.90;;;;;;5035954;28;20502;-55
2023/07/14 01:23:59;;;;;;;6.90;5.37;;;14.50;99.90;;;;;;5035971;28;21016;-56
2023/07/14 01:26:40;;;;;;;6.03;4.70;;;14.50;99.90;;;;;;5035889;28;20896;-55
2023/07/14 01:29:08;;;;;;;7.50;5.43;;;14.50;99.90;;;;;;5035766;28;20427;-56
2023/07/14 01:31:35;;;;;;;6.67;5.07;;;14.50;99.90;;;;;;5035982;28;20473;-56
2023/07/14 01:34:02;;;;;;;5.83;5.23;;;14.40;99.90;;;;;;5035622;28;20496;-54
2023/07/14 01:36:30;;;;;;;6.73;5.20;;;14.40;99.90;;;;;;5035997;28;20443;-54
2023/07/14 01:38:57;;;;;;;5.70;5.10;;;14.40;99.90;;;;;;5035154;28;20550;-55
2023/07/14 01:41:24;;;;;;;12.80;5.30;;;14.40;99.90;;;;;;5035544;28;20898;-56
2023/07/14 01:43:53;;;;;;;7.13;5.47;;;14.40;99.90;;;;;;5035849;28;20458;-55
2023/07/14 01:46:23;;;;;;;7.30;5.50;;;14.30;99.90;;;;;;5035391;28;20963;-56
2023/07/14 01:49:03;;;;;;;7.30;4.87;;;14.30;99.90;;;;;;5035641;28;20450;-56
2023/07/14 01:51:35;;;;;;;5.80;5.03;;;14.30;99.90;;;;;;5035547;28;20466;-56
2023/07/14 01:54:06;;;;;;;6.17;5.57;;;14.30;99.90;;;;;;5035569;28;20477;-56
2023/07/14 01:56:35;;;;;;;5.47;4.97;;;14.30;99.90;;;;;;5035558;28;20432;-57
2023/07/14 01:59:08;;;;;;;5.90;5.37;;;14.30;99.90;;;;;;5035431;28;20450;-57
2023/07/14 02:01:37;;;;;;;5.67;5.17;;;14.30;99.90;;;;;;5035463;28;20784;-54
2023/07/14 02:04:06;;;;;;;7.33;5.70;;;14.20;99.90;;;;;;5035311;28;20447;-56
2023/07/14 02:06:33;;;;;;;5.93;5.27;;;14.20;99.90;;;;;;5035475;28;20818;-55
2023/07/14 02:09:01;;;;;;;8.93;5.27;;;14.20;99.90;;;;;;5035253;28;20446;-56
2023/07/14 02:11:29;;;;;;;6.17;5.60;;;14.20;99.90;;;;;;5035257;28;20518;-57
2023/07/14 02:13:58;;;;;;;6.77;5.47;;;14.20;99.90;;;;;;5035151;28;20451;-55
2023/07/14 02:16:27;;;;;;;5.50;5.00;;;14.20;99.90;;;;;;5034884;28;20457;-56
2023/07/14 02:18:55;;;;;;;6.90;4.80;;;14.20;99.90;;;;;;5034728;28;20931;-54
2023/07/14 02:21:28;;;;;;;6.23;5.30;;;14.20;99.90;;;;;;5034665;28;20475;-55
2023/07/14 02:23:55;;;;;;;5.90;5.30;;;14.20;99.90;;;;;;5034846;28;20913;-55
2023/07/14 02:26:29;;;;;;;6.20;5.60;;;14.20;99.90;;;;;;5034836;28;20943;-59
2023/07/14 02:28:57;;;;;;;5.97;5.37;;;14.20;99.90;;;;;;5034998;28;20440;-55
2023/07/14 02:31:31;;;;;;;5.93;5.33;;;14.10;99.90;;;;;;5034601;28;21110;-55
2023/07/14 02:33:59;;;;;;;6.40;5.70;;;14.10;99.90;;;;;;5034882;28;20970;-55
2023/07/14 02:36:37;;;;;;;6.10;5.40;;;14.10;99.90;;;;;;5036505;28;20450;-56
2023/07/14 02:39:04;;;;;;;6.20;5.60;;;14.10;99.90;;;;;;5035943;28;20914;-55
2023/07/14 02:41:36;;;;;;;7.73;5.40;;;14.10;99.90;;;;;;5035842;28;20482;-55
2023/07/14 02:44:05;;;;;;;5.87;5.37;;;14.10;99.90;;;;;;5035781;28;20799;-55
2023/07/14 02:46:38;;;;;;;6.80;6.20;;;14.10;99.90;;;;;;5035007;28;20456;-54
2023/07/14 02:49:05;;;;;;;7.53;6.20;;;14.10;99.90;;;;;;5034937;28;20435;-55
2023/07/14 02:51:31;;;;;;;8.30;6.07;;;14.10;99.90;;;;;;5033541;28;20486;-55
2023/07/14 02:53:58;;;;;;;6.60;6.03;;;14.10;99.90;;;;;;5034368;28;20454;-55
2023/07/14 02:56:25;;;;;;;7.10;6.40;;;14.10;99.90;;;;;;5034057;28;20447;-55
2023/07/14 02:58:52;;;;;;;6.67;6.03;;;14.10;99.90;;;;;;5034065;28;20999;-56
2023/07/14 03:01:20;;;;;;;9.23;6.40;;;14.10;99.90;;;;;;5034168;28;20505;-56
2023/07/14 03:03:49;;;;;;;8.60;7.00;;;14.10;99.90;;;;;;5034209;28;20453;-56
2023/07/14 03:06:18;;;;;;;14.57;6.87;;;14.10;99.90;;;;;;5033833;28;20455;-55
2023/07/14 03:08:45;;;;;;;7.13;6.43;;;14.10;99.90;;;;;;5033850;28;20948;-55
2023/07/14 03:11:12;;;;;;;7.30;5.73;;;14.10;99.90;;;;;;5034097;28;20589;-54
2023/07/14 03:13:39;;;;;;;6.50;5.80;;;14.10;99.90;;;;;;5034239;28;20443;-56
2023/07/14 03:16:05;;;;;;;7.57;6.77;;;14.10;99.90;;;;;;5033817;28;20454;-54
2023/07/14 03:18:32;;;;;;;13.03;7.10;;;14.10;99.90;;;;;;5033713;28;20478;-54
2023/07/14 03:21:02;;;;;;;7.57;6.80;;;14.10;99.90;;;;;;5034138;28;20486;-55
2023/07/14 03:23:29;;;;;;;8.40;7.70;;;14.10;99.90;;;;;;5034083;28;20435;-55
2023/07/14 03:25:59;;;;;;;10.53;6.67;;;14.10;99.90;;;;;;5033592;28;20462;-55
2023/07/14 03:28:25;;;;;;;7.10;6.40;;;14.10;99.90;;;;;;5033687;28;20987;-54
2023/07/14 03:30:52;;;;;;;12.13;7.80;;;14.10;99.90;;;;;;5033511;28;20468;-55
2023/07/14 03:33:19;;;;;;;7.10;6.40;;;14.10;99.90;;;;;;5033814;28;20481;-55
2023/07/14 03:35:46;;;;;;;6.87;6.17;;;14.10;99.90;;;;;;5033512;28;20455;-55
2023/07/14 03:38:15;;;;;;;7.07;6.30;;;14.10;99.90;;;;;;5033497;28;20573;-54
2023/07/14 03:40:41;;;;;;;8.33;7.53;;;14.20;99.90;;;;;;5033540;28;20470;-55
2023/07/14 03:43:08;;;;;;;8.33;6.33;;;14.20;99.90;;;;;;5033547;28;20447;-55
2023/07/14 03:45:36;;;;;;;10.73;6.63;;;14.20;99.90;;;;;;5033424;28;20445;-55
2023/07/14 03:48:03;;;;;;;6.60;6.00;;;14.30;99.90;;;;;;5033527;28;20444;-56
2023/07/14 03:50:30;;;;;;;6.80;6.20;;;14.30;99.90;;;;;;5033392;28;20469;-55
2023/07/14 03:52:57;;;;;;;8.07;6.50;;;14.30;99.90;;;;;;5033224;28;20457;-56
2023/07/14 03:55:25;;;;;;;8.20;6.00;;;14.40;99.90;;;;;;5033026;28;20940;-55
2023/07/14 03:57:52;;;;;;;6.60;6.00;;;14.40;99.90;;;;;;5033384;28;20482;-55
2023/07/14 04:00:19;;;;;;;8.67;6.47;;;14.50;99.90;;;;;;5033309;28;20462;-55
2023/07/14 04:02:47;;;;;;;9.73;6.57;;;14.50;99.90;;;;;;5033057;28;20454;-55
2023/07/14 04:05:15;;;;;;;6.20;5.60;;;14.60;99.90;;;;;;5033586;28;20452;-56
2023/07/14 04:07:43;;;;;;;6.57;5.50;;;14.80;99.90;;;;;;5033317;28;20864;-56
2023/07/14 04:11:57;;;;;;;10.40;6.93;;;15.20;99.90;;;;;;5112144;27;20538;-54
2023/07/14 04:14:24;;;;;;;6.23;5.50;;;15.50;99.90;;;;;;5111359;28;20445;-56
2023/07/14 04:16:51;;;;;;;9.87;6.20;;;15.60;99.90;;;;;;5110819;28;20451;-55
2023/07/14 04:19:17;;;;;;;5.80;5.20;;;15.80;99.90;;;;;;5111210;28;20448;-55
2023/07/14 04:21:44;;;;;;;7.77;5.30;;;16.00;99.90;;;;;;5110840;28;20459;-55
2023/07/14 04:24:11;;;;;;;6.03;5.47;;;16.10;99.90;;;;;;5110721;28;20486;-55
2023/07/14 04:26:38;;;;;;;8.60;5.40;;;16.20;99.90;;;;;;5111015;28;20447;-55
2023/07/14 04:29:10;;;;;;;8.90;5.33;;;16.40;99.90;;;;;;5111372;28;20539;-57
2023/07/14 04:31:38;;;;;;;10.00;5.90;;;16.50;99.90;;;;;;5111286;28;20514;-58
2023/07/14 04:34:05;;;;;;;8.50;5.20;;;16.60;99.90;;;;;;5111287;28;20453;-56
2023/07/14 04:36:32;;;;;;;5.57;5.10;;;16.70;99.90;;;;;;5111156;28;20893;-57
2023/07/14 04:39:04;;;;;;;5.03;4.40;;;16.80;99.90;;;;;;5111971;28;20452;-57
2023/07/14 04:41:32;;;;;;;5.90;5.07;;;17.00;99.90;;;;;;5110564;28;20527;-54
2023/07/14 04:44:01;;;;;;;7.60;4.90;;;17.10;99.90;;;;;;5110472;28;20460;-57
2023/07/14 04:46:29;;;;;;;5.33;4.83;;;17.20;99.90;;;;;;5110102;28;20935;-57
2023/07/14 04:48:56;;;;;;;7.97;5.10;;;17.40;99.90;;;;;;5110410;28;20442;-57
2023/07/14 04:51:23;;;;;;;5.27;4.67;;;17.70;99.90;;;;;;5110790;28;20569;-57
2023/07/14 04:53:49;;;;;;;6.40;4.50;;;17.90;99.90;;;;;;5111038;28;20439;-58
2023/07/14 04:56:16;;;;;;;5.90;3.97;;;18.10;99.90;;;;;;5110835;28;20535;-57
2023/07/14 04:58:43;;;;;;;5.77;4.67;;;18.30;99.90;;;;;;5110516;28;20443;-58
2023/07/14 05:01:10;;;;;;;5.77;5.17;;;18.40;99.90;;;;;;5109887;28;20463;-57
2023/07/14 05:03:38;;;;;;;6.43;4.23;;;18.50;99.90;;;;;;5110310;28;20455;-57
2023/07/14 05:06:05;;;;;;;9.53;4.90;;;18.60;99.90;;;;;;5110257;28;20451;-57
2023/07/14 05:08:32;;;;;;;8.03;3.90;;;18.80;99.90;;;;;;5110122;28;20445;-57
2023/07/14 05:10:58;;;;;;;5.30;4.30;;;19.10;99.90;;;;;;5110180;28;20488;-57
2023/07/14 05:13:26;;;;;;;7.13;3.90;;;19.30;99.90;;;;;;5109569;28;20446;-57
2023/07/14 05:15:53;;;;;;;6.10;4.30;;;19.40;99.90;;;;;;5109924;28;20452;-57
2023/07/14 05:18:19;;;;;;;7.47;4.00;;;19.60;99.90;;;;;;5110189;28;20438;-58
2023/07/14 05:20:48;;;;;;;4.00;3.70;;;19.70;99.90;;;;;;5110159;28;20461;-56
2023/07/14 05:23:15;;;;;;;4.13;3.73;;;19.70;99.90;;;;;;5097241;28;20450;-56
2023/07/14 05:25:42;;;;;;;4.67;4.27;;;19.90;99.90;;;;;;5096962;28;20539;-57
2023/07/14 05:28:09;;;;;;;4.47;3.50;;;20.10;98.70;;;;;;5096577;28;20458;-57
2023/07/14 05:30:36;;;;;;;5.93;3.73;;;20.20;97.70;;;;;;5096689;28;20845;-57
2023/07/14 05:33:04;;;;;;;4.57;4.03;;;20.20;96.70;;;;;;5096302;28;20447;-56
2023/07/14 05:35:31;;;;;;;5.17;4.13;;;20.30;95.90;;;;;;5096259;28;20496;-57
2023/07/14 05:37:59;;;;;;;5.27;3.77;;;20.30;95.10;;;;;;5095924;28;20494;-57
2023/07/14 05:40:26;;;;;;;6.93;4.33;;;20.20;94.90;;;;;;5095669;28;20971;-56
2023/07/14 05:42:53;;;;;;;4.27;3.87;;;20.30;94.70;;;;;;5095755;28;20969;-56
2023/07/14 05:45:20;;;;;;;5.97;4.47;;;20.30;94.20;;;;;;5095759;28;20454;-57
2023/07/14 05:47:47;;;;;;;4.47;4.00;;;20.40;93.70;;;;;;5095852;28;20533;-57
2023/07/14 05:50:15;;;;;;;6.00;3.90;;;20.50;93.10;;;;;;5095668;28;20470;-56
2023/07/14 05:52:43;;;;;;;3.80;3.50;;;20.60;92.20;;;;;;5095511;28;20928;-56
2023/07/14 05:55:11;;;;;;;6.30;3.80;;;20.70;91.40;;;;;;5095986;28;20962;-57
2023/07/14 05:57:39;;;;;;;8.10;4.10;;;20.80;90.70;;;;;;5095988;28;20451;-57
2023/07/14 06:00:12;;;;;;;3.73;3.37;;;20.70;90.10;;;;;;5095506;28;20470;-57
2023/07/14 06:02:40;;;;;;;8.40;5.00;;;20.60;90.10;;;;;;5095725;28;20430;-57
2023/07/14 06:05:08;;;;;;;4.73;4.03;;;20.60;90.10;;;;;;5095334;28;20470;-56
2023/07/14 06:07:35;;;;;;;5.37;3.70;;;20.60;89.90;;;;;;5095587;28;20453;-57
2023/07/14 06:10:02;;;;;;;6.20;3.60;;;20.70;89.10;;;;;;5095070;28;20475;-57
2023/07/14 06:12:30;;;;;;;7.90;3.97;;;20.70;88.40;;;;;;5095382;28;20512;-57
2023/07/14 06:14:57;;;;;;;5.80;4.40;;;20.80;87.50;;;;;;5103957;28;20446;-56
2023/07/14 06:17:24;;;;;;;5.50;3.60;;;21.00;86.60;;;;;;5103321;28;20450;-58
2023/07/14 06:19:51;;;;;;;5.13;3.73;;;21.10;85.60;;;;;;5102490;28;20469;-57
2023/07/14 06:22:20;;;;;;;4.60;3.80;;;21.10;84.40;;;;;;5102816;28;20438;-57
2023/07/14 06:24:48;;;;;;;8.33;3.73;;;21.20;83.30;;;;;;5096507;28;20449;-58
2023/07/14 06:27:15;;;;;;;10.73;3.43;;;21.30;82.40;;;;;;5096574;28;20449;-58
2023/07/14 06:29:45;;;;;;;4.83;3.90;;;21.20;82.00;;;;;;5096345;28;20549;-57
2023/07/14 06:32:12;;;;;;;5.40;3.53;;;21.10;82.30;;;;;;5095927;28;20856;-58
2023/07/14 06:34:39;;;;;;;8.43;3.60;;;21.10;82.50;;;;;;5093929;28;20445;-57
2023/07/14 06:37:07;;;;;;;7.87;3.33;;;21.30;82.00;;;;;;5095210;28;20537;-58
2023/07/14 06:39:33;;;;;;;7.93;3.90;;;21.40;81.20;;;;;;5094692;28;20530;-57
2023/07/14 06:42:00;;;;;;;5.77;4.10;;;21.50;81.10;;;;;;5094507;28;20526;-57
2023/07/14 06:44:27;;;;;;;5.30;3.80;;;21.70;80.20;;;;;;5094409;28;20450;-58
2023/07/14 06:46:55;;;;;;;5.17;3.80;;;21.90;78.50;;;;;;5094580;28;20443;-58
2023/07/14 06:49:22;;;;;;;4.63;3.77;;;22.10;77.20;;;;;;5094516;28;20454;-59
2023/07/14 06:51:49;;;;;;;5.50;3.33;;;22.20;76.50;;;;;;5094701;28;20477;-57
2023/07/14 06:54:17;;;;;;;6.40;3.70;;;22.30;75.90;;;;;;5094756;28;20439;-57
2023/07/14 06:56:44;;;;;;;5.50;3.80;;;22.40;75.00;;;;;;5094776;28;20447;-59
2023/07/14 06:59:11;;;;;;;5.43;3.83;;;22.40;74.40;;;;;;5095131;28;20454;-57
2023/07/14 07:01:38;;;;;;;4.90;3.50;;;22.40;73.60;;;;;;5095010;28;20467;-58
2023/07/14 07:04:06;;;;;;;9.10;4.40;;;22.40;73.00;;;;;;5103166;28;20496;-58
2023/07/14 07:06:33;;;;;;;6.27;3.97;;;22.50;72.40;;;;;;5094604;28;20442;-57
2023/07/14 07:09:00;;;;;;;5.27;3.60;;;22.50;71.70;;;;;;5094351;28;20447;-57
2023/07/14 07:11:27;;;;;;;4.57;3.43;;;22.40;71.00;;;;;;5094029;28;20494;-57
2023/07/14 07:13:54;;;;;;;4.90;4.20;;;22.10;71.40;;;;;;5095361;28;20445;-56
2023/07/14 07:16:20;;;;;;;4.87;4.10;;;22.00;72.00;;;;;;5095028;28;20449;-56
2023/07/14 07:18:47;;;;;;;7.20;3.50;;;22.00;72.00;;;;;;5094984;28;20446;-56
2023/07/14 07:21:15;;;;;;;4.20;3.70;;;22.20;71.50;;;;;;5094506;28;20463;-56
2023/07/14 07:23:42;;;;;;;6.90;3.70;;;22.30;70.80;;;;;;5094647;28;20447;-56
2023/07/14 07:26:09;;;;;;;4.30;3.00;;;22.40;69.90;;;;;;5094098;28;20469;-56
2023/07/14 07:28:36;;;;;;;4.97;3.70;;;22.40;69.20;;;;;;5094028;28;20445;-57
2023/07/14 07:31:09;;;;;;;4.37;3.30;;;22.30;69.30;;;;;;5093523;28;20496;-56
2023/07/14 07:33:36;;;;;;;5.27;3.83;;;22.30;69.70;;;;;;5093673;28;20435;-56
2023/07/14 07:36:14;;;;;;;5.27;4.10;;;22.30;69.50;;;;;;5093840;28;20812;-56
2023/07/14 07:38:47;;;;;;;3.80;3.40;;;22.30;69.10;;;;;;5093568;28;20434;-56
2023/07/14 07:41:14;;;;;;;5.37;3.03;;;22.20;68.60;;;;;;5093219;28;20992;-56
2023/07/14 07:43:41;;;;;;;5.90;3.97;;;22.20;68.50;;;;;;5093486;28;20454;-56
2023/07/14 07:46:08;;;;;;;5.60;4.40;;;22.20;68.30;;;;;;5092824;28;20928;-56
2023/07/14 07:48:36;;;;;;;5.30;4.13;;;22.40;68.20;;;;;;5093385;28;20529;-55
2023/07/14 07:51:04;;;;;;;4.20;3.80;;;22.50;67.90;;;;;;5093220;28;20490;-56
2023/07/14 07:53:31;;;;;;;4.20;3.80;;;22.70;67.00;;;;;;5093147;28;20446;-56
2023/07/14 07:56:01;;;;;;;6.83;5.13;;;22.90;66.40;;;;;;5093226;28;20442;-56
2023/07/14 07:58:29;;;;;;;5.87;4.07;;;23.00;65.90;;;;;;5093146;28;20447;-57
2023/07/14 08:00:58;;;;;;;4.97;4.07;;;23.10;65.70;;;;;;5093096;28;20473;-56
2023/07/14 08:03:25;;;;;;;5.53;4.20;;;23.10;65.40;;;;;;5093331;28;20486;-58
2023/07/14 08:05:54;;;;;;;5.10;4.37;;;23.20;65.20;;;;;;5092943;28;20453;-55
2023/07/14 08:08:21;;;;;;;9.57;3.57;;;23.30;64.80;;;;;;5093234;28;20454;-57
2023/07/14 08:10:48;;;;;;;5.80;3.90;;;23.40;64.60;;;;;;5093157;28;20475;-57
2023/07/14 08:13:16;;;;;;;5.13;3.90;;;23.30;64.30;;;;;;5094605;28;20438;-54
2023/07/14 08:15:43;;;;;;;4.50;2.83;;;23.20;64.40;;;;;;5094178;28;20776;-56
2023/07/14 08:18:10;;;;;;;3.67;2.80;;;23.30;64.50;;;;;;5095571;28;20448;-56
2023/07/14 08:20:38;;;;;;;6.70;3.20;;;23.50;63.90;;;;;;5093976;28;20893;-56
2023/07/14 08:23:06;;;;;;;4.13;3.20;;;23.60;63.40;;;;;;5095143;28;20445;-56
2023/07/14 08:25:33;;;;;;;3.90;3.30;;;23.80;63.10;;;;;;5094111;28;20522;-57
2023/07/14 08:28:00;;;;;;;4.70;3.70;;;23.90;62.70;;;;;;5094500;28;20439;-56
2023/07/14 08:30:30;;;;;;;5.90;3.60;;;24.00;62.30;;;;;;5093236;28;20458;-56
2023/07/14 08:32:57;;;;;;;4.40;3.00;;;24.10;62.20;;;;;;5093528;28;20993;-56
2023/07/14 08:35:24;;;;;;;3.13;2.83;;;24.20;61.60;;;;;;5093561;28;20452;-56
2023/07/14 08:37:51;;;;;;;3.40;2.50;;;24.40;61.30;;;;;;5093028;28;20440;-56
2023/07/14 08:40:21;;;;;;;6.37;2.70;;;24.50;60.60;;;;;;5093373;28;20489;-56
2023/07/14 08:42:59;;;;;;;6.50;3.30;;;24.60;60.10;;;;;;5092904;28;20787;-56
2023/07/14 08:45:43;;;;;;;4.47;3.10;;;24.70;59.80;;;;;;5093400;28;20493;-58
2023/07/14 08:48:30;;;;;;;5.70;3.20;;;24.90;59.20;;;;;;5092754;28;20438;-56
2023/07/14 08:51:11;;;;;;;4.50;3.27;;;25.00;58.50;;;;;;5092655;28;20490;-56
2023/07/14 08:53:38;;;;;;;3.93;2.87;;;25.10;57.90;;;;;;5092704;28;20905;-56
2023/07/14 08:56:06;;;;;;;3.53;2.77;;;25.10;57.40;;;;;;5093227;28;20442;-56
2023/07/14 08:58:51;;;;;;;6.93;2.70;;;25.10;57.40;;;;;;5098995;28;20458;-57
2023/07/14 09:01:35;;;;;;;5.07;2.57;;;25.10;57.20;;;;;;5096635;28;20951;-57
2023/07/14 09:04:06;;;;;;;3.23;2.50;;;25.10;56.70;;;;;;5096042;28;20431;-55
2023/07/14 09:06:36;;;;;;;6.03;2.73;;;25.10;56.20;;;;;;5096125;28;20780;-56
2023/07/14 09:09:04;;;;;;;2.20;2.00;;;25.00;55.30;;;;;;5096302;28;20491;-56
2023/07/14 09:11:43;;;;;;;3.63;2.20;;;24.70;54.80;;;;;;5095937;28;20478;-56
2023/07/14 09:14:43;;;;;;;2.93;2.47;;;24.70;55.00;;;;;;5096385;28;20485;-57
2023/07/14 09:17:20;;;;;;;2.40;2.20;;;24.80;54.80;;;;;;5097169;28;20427;-58
2023/07/14 09:20:15;;;;;;;3.03;2.03;;;24.70;54.50;;;;;;5096575;28;20435;-58
2023/07/14 09:22:50;;;;;;;2.43;1.93;;;24.90;54.10;;;;;;5102264;22;20498;-57
2023/07/14 09:25:24;;;;;;;4.60;2.83;;;25.00;53.10;;;;;;5077401;28;20408;-57
2023/07/14 09:27:52;;;;;;;6.50;2.80;;;25.10;52.90;;;;;;5076931;28;20427;-59
2023/07/14 09:30:21;;;;;;;3.30;2.57;;;25.40;52.70;;;;;;5077760;28;20439;-58
2023/07/14 09:32:53;;;;;;;2.90;2.20;;;25.60;52.10;;;;;;5078077;28;20574;-58
2023/07/14 09:35:21;;;;;;;4.30;2.33;;;25.60;51.90;;;;;;5078048;28;20464;-59
2023/07/14 09:37:54;;;;;;;4.57;3.10;;;25.60;51.80;;;;;;5077621;28;20451;-59
2023/07/14 09:40:23;;;;;;;4.63;2.53;;;25.80;51.70;;;;;;5078123;28;20450;-59
2023/07/14 09:42:51;;;;;;;3.10;2.70;;;26.00;51.00;;;;;;5078384;28;20562;-58
2023/07/14 09:45:21;;;;;;;2.90;2.30;;;25.90;50.30;;;;;;5078282;28;20448;-59
2023/07/14 09:47:56;;;;;;;3.23;2.70;;;25.80;50.10;;;;;;5080143;28;20452;-57
2023/07/14 09:50:25;;;;;;;5.20;3.10;;;25.80;50.20;;;;;;5080405;28;20802;-55
2023/07/14 09:52:55;;;;;;;4.13;2.50;;;26.10;49.80;;;;;;5081608;28;20554;-57
2023/07/14 09:55:23;;;;;;;6.10;3.60;;;26.40;49.20;;;;;;5082182;28;20817;-58
2023/07/14 09:57:53;;;;;;;5.23;2.80;;;26.60;48.40;;;;;;5079778;28;20432;-58
2023/07/14 10:00:24;;;;;;;3.00;2.70;;;26.80;47.70;;;;;;5077560;28;20432;-60
2023/07/14 10:03:03;;;;;;;3.10;2.40;;;26.90;47.40;;;;;;5076922;28;20467;-56
2023/07/14 10:05:43;;;;;;;4.57;2.47;;;27.00;47.20;;;;;;5076408;28;20526;-56
2023/07/14 10:08:27;;;;;;;4.00;2.60;;;27.10;47.20;;;;;;5076836;28;20439;-59
2023/07/14 10:10:57;;;;;;;4.07;2.70;;;27.30;46.80;;;;;;5076757;28;20427;-59
2023/07/14 10:13:28;;;;;;;4.90;2.53;;;27.50;46.40;;;;;;5076786;28;20464;-60
2023/07/14 10:15:58;;;;;;;4.20;2.00;;;27.70;46.10;;;;;;5076833;28;20431;-57
2023/07/14 10:18:28;;;;;;;3.77;2.30;;;27.90;45.50;;;;;;5076176;28;20432;-58
2023/07/14 10:21:00;;;;;;;6.10;3.10;;;28.00;45.10;;;;;;5076336;28;20466;-60
2023/07/14 10:23:27;;;;;;;3.87;2.20;;;28.00;44.90;;;;;;5077188;28;20439;-60
2023/07/14 10:25:55;;;;;;;2.60;2.07;;;28.00;44.60;;;;;;5076349;28;20447;-58
2023/07/14 10:28:27;;;;;;;5.73;2.87;;;27.90;44.60;;;;;;5077054;28;20451;-57
2023/07/14 10:31:02;;;;;;;5.10;2.80;;;27.70;44.50;;;;;;5075846;28;20463;-59
2023/07/14 10:33:39;;;;;;;3.70;2.40;;;27.50;44.90;;;;;;5075734;28;20467;-58
2023/07/14 10:36:10;;;;;;;3.30;2.80;;;27.50;45.00;;;;;;5075339;28;20428;-58
2023/07/14 10:38:42;;;;;;;3.97;2.67;;;27.60;44.90;;;;;;5075443;28;20436;-59
2023/07/14 10:41:11;;;;;;;8.47;5.10;;;27.60;44.90;;;;;;5075173;28;20471;-58
2023/07/14 10:43:48;;;;;;;10.30;8.63;;;27.60;45.40;;;;;;5074822;28;20917;-56
2023/07/14 10:46:18;;;;;;;4.70;3.70;;;27.60;44.50;;;;;;5075598;28;20432;-59
2023/07/14 10:48:49;;;;;;;27.83;25.00;;;27.70;44.60;;;;;;5075696;28;20816;-59
2023/07/14 10:51:30;;;;;;;4.77;4.27;;;27.90;44.40;;;;;;5075493;28;20466;-59
2023/07/14 10:54:02;;;;;;;2.93;2.13;;;28.30;43.80;;;;;;5075842;28;20467;-57
2023/07/14 10:56:35;;;;;;;3.20;2.50;;;28.30;43.00;;;;;;5074964;28;20435;-57
2023/07/14 10:59:13;;;;;;;2.67;2.40;;;27.80;43.40;;;;;;5075004;28;20937;-58
2023/07/14 11:01:42;;;;;;;3.80;2.70;;;27.40;44.10;;;;;;5074851;28;20623;-55
2023/07/14 11:04:20;;;;;;;2.80;2.10;;;27.10;44.60;;;;;;5074591;28;20440;-58
2023/07/14 11:06:51;;;;;;;2.60;2.40;;;27.10;44.90;;;;;;5074464;28;20904;-58
2023/07/14 11:09:18;;;;;;;2.53;2.10;;;27.30;44.60;;;;;;5074460;28;20965;-59
2023/07/14 11:11:56;;;;;;;3.60;2.60;;;27.60;44.40;;;;;;5074908;28;20485;-59
2023/07/14 11:14:31;;;;;;;5.17;2.50;;;27.80;44.50;;;;;;5075367;28;20815;-59
2023/07/14 11:17:05;;;;;;;3.87;2.67;;;27.90;43.70;;;;;;5076313;28;20423;-59
2023/07/14 11:19:57;;;;;;;27.03;24.43;;;28.00;43.60;;;;;;5075039;28;20432;-57
2023/07/14 11:22:40;;;;;;;4.93;3.93;;;28.50;43.20;;;;;;5075205;28;20478;-58
2023/07/14 11:25:16;;;;;;;2.50;2.30;;;28.80;42.10;;;;;;5075808;28;20435;-58
2023/07/14 11:27:55;;;;;;;63.23;51.80;;;28.70;42.10;;;;;;5075294;28;20515;-58
2023/07/14 11:30:29;;;;;;;46.50;38.37;;;28.40;42.00;;;;;;5076882;28;20432;-59
2023/07/14 11:33:05;;;;;;;17.80;15.90;;;28.30;42.40;;;;;;5076618;28;21022;-59
2023/07/14 11:35:35;;;;;;;5.07;3.10;;;28.50;42.50;;;;;;5076519;28;20900;-58
2023/07/14 11:38:21;;;;;;;2.80;2.50;;;28.60;42.10;;;;;;5076772;28;20936;-59
2023/07/14 11:40:49;;;;;;;3.40;2.60;;;28.80;41.80;;;;;;5076122;28;20428;-57
2023/07/14 11:43:21;;;;;;;2.60;2.40;;;28.90;41.60;;;;;;5074573;28;20438;-57
2023/07/14 11:45:57;;;;;;;3.23;2.50;;;28.90;41.40;;;;;;5073826;28;20424;-57
2023/07/14 11:48:32;;;;;;;4.47;2.87;;;29.10;41.30;;;;;;5074287;28;20428;-57
2023/07/14 11:51:10;;;;;;;4.63;2.57;;;29.20;41.10;;;;;;5073686;28;20469;-59
2023/07/14 11:53:40;;;;;;;4.47;2.73;;;29.40;41.10;;;;;;5074636;28;20471;-59
2023/07/14 11:56:25;;;;;;;3.70;2.90;;;29.60;40.90;;;;;;5074914;28;20454;-59
2023/07/14 11:59:06;;;;;;;3.40;2.60;;;29.70;40.40;;;;;;5074118;28;20875;-59
2023/07/14 12:01:34;;;;;;;4.90;3.40;;;29.90;40.10;;;;;;5074290;28;20495;-59
2023/07/14 12:04:23;;;;;;;3.27;2.93;;;30.20;39.60;;;;;;5074738;28;20459;-59
2023/07/14 12:07:04;;;;;;;2.80;2.33;;;30.60;38.90;;;;;;5074382;28;20424;-59
2023/07/14 12:09:33;;;;;;;3.57;3.00;;;30.50;38.20;;;;;;5074221;28;20436;-58
2023/07/14 12:12:01;;;;;;;3.60;2.80;;;30.10;38.40;;;;;;5074478;28;20470;-58
2023/07/14 12:14:49;;;;;;;4.97;2.80;;;29.90;38.70;;;;;;5074449;28;20444;-59
2023/07/14 12:17:48;;;;;;;4.13;3.03;;;30.40;38.30;;;;;;5074579;28;20800;-58
2023/07/14 12:20:31;;;;;;;2.60;2.20;;;31.20;37.10;;;;;;5074006;28;20940;-57
2023/07/14 12:23:23;;;;;;;3.80;2.67;;;31.80;36.20;;;;;;5073885;28;20475;-59
2023/07/14 12:25:57;;;;;;;3.83;2.97;;;31.50;35.60;;;;;;5074397;28;20432;-58
2023/07/14 12:28:26;;;;;;;3.33;3.03;;;31.00;36.30;;;;;;5074461;28;20431;-60
2023/07/14 12:30:54;;;;;;;3.27;2.57;;;30.20;37.20;;;;;;5073916;28;20941;-59
2023/07/14 12:33:24;;;;;;;7.27;2.50;;;29.60;38.10;;;;;;5077719;28;20471;-60
2023/07/14 12:35:52;;;;;;;3.80;2.77;;;29.30;38.70;;;;;;5078437;28;20479;-59
2023/07/14 12:38:22;;;;;;;3.00;2.60;;;29.30;38.50;;;;;;5077674;28;20501;-58
2023/07/14 12:40:52;;;;;;;3.87;2.80;;;29.50;37.80;;;;;;5077517;28;20442;-59
2023/07/14 12:43:33;;;;;;;3.70;2.73;;;30.00;37.10;;;;;;5077332;28;20416;-58
2023/07/14 12:46:03;;;;;;;3.17;2.80;;;30.60;36.30;;;;;;5077433;28;20434;-57
2023/07/14 12:48:32;;;;;;;6.40;4.20;;;30.70;35.90;;;;;;5078578;28;20447;-58
2023/07/14 12:51:15;;;;;;;4.13;2.40;;;30.60;35.90;;;;;;5077477;28;20471;-60
2023/07/14 12:53:49;;;;;;;2.40;2.20;;;30.50;35.80;;;;;;5077421;28;20537;-59
2023/07/14 12:56:16;;;;;;;3.53;2.63;;;30.20;35.80;;;;;;5078509;28;20424;-59
2023/07/14 12:58:42;;;;;;;3.03;2.73;;;29.80;36.30;;;;;;5078128;28;20451;-62
2023/07/14 13:01:09;;;;;;;5.13;2.53;;;29.50;36.90;;;;;;5078231;28;20471;-61
2023/07/14 13:03:37;;;;;;;7.53;3.00;;;29.30;37.00;;;;;;5077756;28;20435;-60